Rossmoor, California
Current Conditions -  °F | °C
As of 4:58 PM on Tuesday 27 Jan 2015 (Local Time) from KSLI Reporting Station
Few Clouds Few Clouds  
Wind Chill: 66°   Ceiling: Unl
Heat Index: 66°   Visibility: 10mi
Dew Point: 53°   Wind: 10mph
Humidity: 63%   Direction: 280°W
Pressure: 30.14"   Gusts: NA
Location:  33.7944°N, 118.065°W
Report Text: KSLI 280058Z 28009KT 10SM FEW050 FEW250 19/12 A3014 RMK AO2A SLP209 T01900119
Loading
Personal Weather Stations






























Interactive Weather Map New forecast layout! Learn more

10-Day Weather Forecast

Advertisements
Track Severe Weather on mobile